createdAt,value
2023-02-22T00:02:34.567Z,954.35
2023-02-22T00:07:35.806Z,954.3
2023-02-22T00:12:37.883Z,954.3
2023-02-22T00:17:39.995Z,954.26
2023-02-22T00:22:42.037Z,954.21
2023-02-22T00:27:43.864Z,954.11
2023-02-22T00:32:45.853Z,954.07
2023-02-22T00:37:47.642Z,954.06
2023-02-22T00:42:49.678Z,954.01
2023-02-22T00:47:50.889Z,954.01
2023-02-22T00:52:52.973Z,953.99
2023-02-22T00:57:54.651Z,954.02
2023-02-22T01:02:56.049Z,953.99
2023-02-22T01:07:57.802Z,954.01
2023-02-22T01:12:59.284Z,954
2023-02-22T01:18:01.366Z,953.97
2023-02-22T01:23:03.485Z,953.92
2023-02-22T01:28:05.742Z,953.91
2023-02-22T01:33:06.793Z,953.87
2023-02-22T01:38:08.400Z,953.84
2023-02-22T01:43:09.867Z,953.77
2023-02-22T01:48:12.020Z,953.75
2023-02-22T01:53:14.122Z,953.75
2023-02-22T01:58:16.033Z,953.69
2023-02-22T02:03:17.434Z,953.67
2023-02-22T02:08:19.434Z,953.65
2023-02-22T02:13:21.626Z,953.59
2023-02-22T02:18:22.965Z,953.55
2023-02-22T02:23:24.325Z,953.47
2023-02-22T02:28:26.206Z,953.4
2023-02-22T02:33:27.774Z,953.38
2023-02-22T02:38:29.158Z,953.33
2023-02-22T02:43:31.250Z,953.28
2023-02-22T02:48:33.143Z,953.26
2023-02-22T02:53:34.347Z,953.21
2023-02-22T02:58:35.917Z,953.09
2023-02-22T03:03:37.884Z,953.05
2023-02-22T03:08:39.153Z,953.02
2023-02-22T03:13:40.982Z,952.94
2023-02-22T03:18:42.942Z,952.93
2023-02-22T03:23:44.980Z,952.85
2023-02-22T03:28:46.439Z,952.84
2023-02-22T03:33:47.642Z,952.83
2023-02-22T03:38:49.003Z,952.8
2023-02-22T03:43:50.488Z,952.75
2023-02-22T03:48:52.436Z,952.69
2023-02-22T03:53:53.873Z,952.68
2023-02-22T03:58:55.776Z,952.73
2023-02-22T04:03:57.162Z,952.74
2023-02-22T04:08:59.339Z,952.76
2023-02-22T04:14:01.525Z,952.79
2023-02-22T04:19:03.170Z,952.81
2023-02-22T04:24:04.795Z,952.81
2023-02-22T04:29:06.683Z,952.82
2023-02-22T04:34:08.799Z,952.77
2023-02-22T04:39:10.483Z,952.78
2023-02-22T04:44:11.767Z,952.76
2023-02-22T04:49:13.825Z,952.73
2023-02-22T04:54:21.989Z,952.76
2023-02-22T04:59:23.541Z,952.75
2023-02-22T05:04:25.595Z,952.77
2023-02-22T05:09:27.045Z,952.82
2023-02-22T05:14:29.052Z,952.77
2023-02-22T05:19:31.227Z,952.65
2023-02-22T05:24:32.683Z,952.6
2023-02-22T05:29:34.403Z,952.63
2023-02-22T05:34:36.508Z,952.55
2023-02-22T05:39:38.382Z,952.51
2023-02-22T05:44:39.672Z,952.53
2023-02-22T05:49:41.822Z,952.55
2023-02-22T05:54:43.316Z,952.63
2023-02-22T05:59:44.580Z,952.64
2023-02-22T06:04:46.136Z,952.56
2023-02-22T06:09:47.813Z,952.63
2023-02-22T06:14:49.757Z,952.62
2023-02-22T06:19:50.997Z,952.7
2023-02-22T06:24:54.930Z,952.72
2023-02-22T06:55:03.128Z,952.86
2023-02-22T07:10:08.333Z,952.9
2023-02-22T07:30:14.666Z,952.82
2023-02-22T07:35:16.039Z,952.78
2023-02-22T07:40:18.004Z,952.78
2023-02-22T07:50:21.598Z,952.66
2023-02-22T07:55:23.619Z,952.68
2023-02-22T08:00:25.709Z,952.57
2023-02-22T08:05:27.820Z,952.59
2023-02-22T08:10:29.392Z,952.52
2023-02-22T08:15:31.372Z,952.46
2023-02-22T08:20:33.081Z,952.43
2023-02-22T08:25:34.494Z,952.41
2023-02-22T08:30:38.971Z,952.36
2023-02-22T08:35:38.286Z,952.33
2023-02-22T08:40:40.192Z,952.35
2023-02-22T08:45:41.504Z,952.3
2023-02-22T08:50:42.893Z,952.27
2023-02-22T08:55:44.479Z,952.28
2023-02-22T09:00:46.087Z,952.25
2023-02-22T09:05:48.259Z,952.28
2023-02-22T09:10:49.608Z,952.19
2023-02-22T09:15:52.039Z,952.21
2023-02-22T09:20:53.803Z,952.15
2023-02-22T09:25:55.617Z,952.08
2023-02-22T09:30:57.406Z,952.04
2023-02-22T09:35:59.286Z,952.03
2023-02-22T09:41:01.447Z,952.05
2023-02-22T09:46:03.688Z,952.01
2023-02-22T09:51:05.481Z,951.98
2023-02-22T09:56:07.092Z,951.96
2023-02-22T10:01:09.085Z,951.92
2023-02-22T10:06:11.065Z,951.9
2023-02-22T10:11:12.293Z,951.84
2023-02-22T10:16:13.874Z,951.74
2023-02-22T10:21:15.602Z,951.71
2023-02-22T10:26:17.515Z,951.68
2023-02-22T10:31:19.475Z,951.67
2023-02-22T10:36:20.575Z,951.58
2023-02-22T10:41:22.592Z,951.59
2023-02-22T10:46:23.992Z,951.53
2023-02-22T10:51:25.610Z,951.49
2023-02-22T10:56:27.383Z,951.49
2023-02-22T11:01:28.942Z,951.42
2023-02-22T11:06:30.399Z,951.37
2023-02-22T11:11:32.153Z,951.36
2023-02-22T11:16:34.326Z,951.29
2023-02-22T11:21:35.986Z,951.25
2023-02-22T11:26:37.250Z,951.15
2023-02-22T11:31:38.536Z,951.08
2023-02-22T11:36:40.091Z,950.98
2023-02-22T11:41:41.490Z,950.91
2023-02-22T11:46:42.723Z,950.87
2023-02-22T11:51:44.537Z,950.83
2023-02-22T11:56:46.734Z,950.72
2023-02-22T12:01:56.568Z,950.7
2023-02-22T12:06:50.447Z,950.64
2023-02-22T12:11:52.563Z,950.61
2023-02-22T12:16:54.389Z,950.58
2023-02-22T12:21:55.834Z,950.49
2023-02-22T12:26:57.447Z,950.47
2023-02-22T12:31:59.207Z,950.42
2023-02-22T12:37:01.297Z,950.4
2023-02-22T12:42:02.678Z,950.33
2023-02-22T12:47:04.338Z,950.32
2023-02-22T12:52:20.511Z,950.31
2023-02-22T12:57:07.821Z,950.26
2023-02-22T13:02:09.630Z,950.25
2023-02-22T13:07:11.745Z,950.23
2023-02-22T13:12:13.097Z,950.14
2023-02-22T13:17:14.417Z,950.09
2023-02-22T13:22:16.648Z,950.05
2023-02-22T13:27:17.830Z,950.01
2023-02-22T13:32:19.408Z,949.95
2023-02-22T13:37:21.389Z,949.92
2023-02-22T13:42:22.906Z,949.81
2023-02-22T13:47:24.445Z,949.83
2023-02-22T13:52:26.321Z,949.8
2023-02-22T13:57:27.662Z,949.73
2023-02-22T14:02:29.380Z,949.74
2023-02-22T14:07:31.122Z,949.71
2023-02-22T14:12:32.825Z,949.68
2023-02-22T14:17:34.491Z,949.62
2023-02-22T14:22:35.942Z,949.68
2023-02-22T14:27:37.284Z,949.66
2023-02-22T14:32:38.609Z,949.61
2023-02-22T14:37:39.801Z,949.64
2023-02-22T14:42:41.506Z,949.64
2023-02-22T14:47:43.301Z,949.67
2023-02-22T14:52:44.968Z,949.67
2023-02-22T14:57:46.772Z,949.63
2023-02-22T15:02:48.915Z,949.61
2023-02-22T15:07:50.579Z,949.6
2023-02-22T15:12:52.016Z,949.59
2023-02-22T15:17:53.506Z,949.62
2023-02-22T15:22:55.307Z,949.61
2023-02-22T15:27:57.254Z,949.61
2023-02-22T15:33:04.362Z,949.56
2023-02-22T15:38:00.667Z,949.56
2023-02-22T15:43:02.556Z,949.54
2023-02-22T15:48:04.511Z,949.56
2023-02-22T15:53:06.083Z,949.58
2023-02-22T15:58:07.901Z,949.6
2023-02-22T16:03:10.086Z,949.55
2023-02-22T16:08:12.045Z,949.59
2023-02-22T16:13:22.292Z,949.7
2023-02-22T16:18:14.918Z,949.66
2023-02-22T16:23:16.829Z,949.66
2023-02-22T16:28:18.322Z,949.69
2023-02-22T16:33:20.213Z,949.67
2023-02-22T16:38:22.110Z,949.69
2023-02-22T16:43:23.308Z,949.74
2023-02-22T16:48:25.280Z,949.74
2023-02-22T16:53:27.175Z,949.81
2023-02-22T16:58:28.254Z,949.83
2023-02-22T17:03:29.797Z,949.88
2023-02-22T17:08:31.196Z,949.87
2023-02-22T17:13:32.549Z,949.92
2023-02-22T17:18:34.464Z,950.02
2023-02-22T17:23:36.059Z,950.07
2023-02-22T17:28:37.296Z,950.09
2023-02-22T17:33:38.968Z,950.13
2023-02-22T17:38:40.533Z,950.13
2023-02-22T17:43:41.996Z,950.18
2023-02-22T17:48:43.849Z,950.19
2023-02-22T17:53:45.829Z,950.22
2023-02-22T17:58:47.221Z,950.21
2023-02-22T18:03:48.764Z,950.22
2023-02-22T18:08:50.954Z,950.2
2023-02-22T18:13:52.458Z,950.18
2023-02-22T18:18:53.740Z,950.18
2023-02-22T18:23:55.696Z,950.2
2023-02-22T18:28:57.610Z,950.21
2023-02-22T18:33:58.877Z,950.25
2023-02-22T18:39:00.918Z,950.19
2023-02-22T18:44:02.685Z,950.22
2023-02-22T18:49:04.579Z,950.2
2023-02-22T18:54:05.956Z,950.25
2023-02-22T18:59:08.066Z,950.27
2023-02-22T19:04:10.007Z,950.24
2023-02-22T19:09:11.612Z,950.25
2023-02-22T19:14:13.539Z,950.24
2023-02-22T19:19:15.091Z,950.22
2023-02-22T19:24:16.836Z,950.23
2023-02-22T19:29:18.497Z,950.25
2023-02-22T19:34:20.213Z,950.27
2023-02-22T19:44:22.895Z,950.35
2023-02-22T19:54:26.073Z,950.37
2023-02-22T19:59:27.309Z,950.39
2023-02-22T20:04:28.910Z,950.46
2023-02-22T20:09:30.464Z,950.46
2023-02-22T20:14:31.703Z,950.48
2023-02-22T20:19:33.663Z,950.52
2023-02-22T20:24:35.468Z,950.51
2023-02-22T20:29:36.839Z,950.51
2023-02-22T20:34:38.733Z,950.57
2023-02-22T20:39:40.183Z,950.61
2023-02-22T20:44:41.459Z,950.68
2023-02-22T20:49:43.562Z,950.8
2023-02-22T20:54:45.432Z,950.71
2023-02-22T20:59:46.817Z,950.73
2023-02-22T21:04:48.197Z,950.74
2023-02-22T21:09:49.722Z,950.74
2023-02-22T21:14:51.100Z,950.78
2023-02-22T21:24:54.095Z,950.75
2023-02-22T21:29:55.825Z,950.76
2023-02-22T21:55:10.575Z,950.68
2023-02-22T22:00:12.175Z,950.65
2023-02-22T22:05:13.400Z,950.68
2023-02-22T22:15:16.740Z,950.64
2023-02-22T22:20:18.973Z,950.57
2023-02-22T22:30:22.502Z,950.62
2023-02-22T22:35:23.728Z,950.62
2023-02-22T22:40:25.644Z,950.6
2023-02-22T22:45:27.563Z,950.59
2023-02-22T22:50:28.847Z,950.58
2023-02-22T22:55:30.464Z,950.58
2023-02-22T23:11:44.995Z,950.62
2023-02-22T23:15:38.183Z,950.67
2023-02-22T23:20:39.602Z,950.67
2023-02-22T23:25:41.432Z,950.7
2023-02-22T23:30:42.965Z,950.68
2023-02-22T23:35:44.505Z,950.71
2023-02-22T23:40:46.277Z,950.73
2023-02-22T23:45:47.940Z,950.78
2023-02-22T23:50:49.741Z,950.73
2023-02-22T23:55:51.749Z,950.77
